createdAt,value
2019-03-24T00:01:54.578Z,47.17
2019-03-24T00:04:20.959Z,42.27
2019-03-24T00:06:47.423Z,39.10
2019-03-24T00:09:13.770Z,43.20
2019-03-24T00:11:40.522Z,41.33
2019-03-24T00:14:07.189Z,48.07
2019-03-24T00:16:33.711Z,42.53
2019-03-24T00:19:00.480Z,47.63
2019-03-24T00:21:26.931Z,48.17
2019-03-24T00:23:53.403Z,43.43
2019-03-24T00:26:19.978Z,41.03
2019-03-24T00:28:46.323Z,40.53
2019-03-24T00:31:12.703Z,40.73
2019-03-24T00:33:39.061Z,40.70
2019-03-24T00:36:05.525Z,40.07
2019-03-24T00:38:31.919Z,44.13
2019-03-24T00:40:58.277Z,45.27
2019-03-24T00:43:24.755Z,44.07
2019-03-24T00:45:51.222Z,43.10
2019-03-24T00:48:17.598Z,43.73
2019-03-24T00:50:44.145Z,43.67
2019-03-24T00:53:10.611Z,43.67
2019-03-24T00:55:37.060Z,44.40
2019-03-24T00:58:03.577Z,42.07
2019-03-24T01:00:31.994Z,45.67
2019-03-24T01:02:58.570Z,47.00
2019-03-24T01:05:25.114Z,44.90
2019-03-24T01:07:51.595Z,47.40
2019-03-24T01:10:18.051Z,40.00
2019-03-24T01:12:44.442Z,50.07
2019-03-24T01:15:11.018Z,48.87
2019-03-24T01:17:37.587Z,49.30
2019-03-24T01:20:04.839Z,49.03
2019-03-24T01:22:31.421Z,53.10
2019-03-24T01:24:57.936Z,46.63
2019-03-24T01:27:24.398Z,57.60
2019-03-24T01:29:50.869Z,52.43
2019-03-24T01:32:17.351Z,52.10
2019-03-24T01:34:43.802Z,49.83
2019-03-24T01:37:10.143Z,48.83
2019-03-24T01:39:36.710Z,53.37
2019-03-24T01:42:03.176Z,52.87
2019-03-24T01:44:29.648Z,48.33
2019-03-24T01:46:56.048Z,51.10
2019-03-24T01:49:22.622Z,56.23
2019-03-24T01:51:48.971Z,54.67
2019-03-24T01:54:15.434Z,53.73
2019-03-24T01:56:42.007Z,50.10
2019-03-24T01:59:08.467Z,56.07
2019-03-24T02:01:34.914Z,49.93
2019-03-24T02:04:01.302Z,50.70
2019-03-24T02:06:27.739Z,55.10
2019-03-24T02:08:54.108Z,47.87
2019-03-24T02:11:20.463Z,50.63
2019-03-24T02:13:46.935Z,53.50
2019-03-24T02:16:13.319Z,55.33
2019-03-24T02:18:39.812Z,50.13
2019-03-24T02:21:06.193Z,50.47
2019-03-24T02:23:32.566Z,52.27
2019-03-24T02:25:59.019Z,53.77
2019-03-24T02:28:25.404Z,56.40
2019-03-24T02:30:51.856Z,50.33
2019-03-24T02:33:18.517Z,47.47
2019-03-24T02:35:44.956Z,44.13
2019-03-24T02:38:11.368Z,45.60
2019-03-24T02:40:37.990Z,45.93
2019-03-24T02:43:04.436Z,47.10
2019-03-24T02:45:30.909Z,50.33
2019-03-24T02:47:57.467Z,49.77
2019-03-24T02:50:23.858Z,58.13
2019-03-24T02:52:50.420Z,54.77
2019-03-24T02:55:16.803Z,54.17
2019-03-24T02:57:43.247Z,57.10
2019-03-24T03:00:10.111Z,57.33
2019-03-24T03:02:36.562Z,63.23
2019-03-24T03:05:04.641Z,53.10
2019-03-24T03:07:31.095Z,61.67
2019-03-24T03:09:57.463Z,59.50
2019-03-24T03:12:23.856Z,56.57
2019-03-24T03:14:50.316Z,61.30
2019-03-24T03:17:16.717Z,57.50
2019-03-24T03:19:43.178Z,60.37
2019-03-24T03:22:09.646Z,65.30
2019-03-24T03:24:36.098Z,58.77
2019-03-24T03:27:02.727Z,66.10
2019-03-24T03:29:29.143Z,58.80
2019-03-24T03:31:55.628Z,60.67
2019-03-24T03:34:22.014Z,57.87
2019-03-24T03:36:48.605Z,68.03
2019-03-24T03:39:15.175Z,62.10
2019-03-24T03:41:41.814Z,59.73
2019-03-24T03:44:08.276Z,59.20
2019-03-24T03:46:34.700Z,63.53
2019-03-24T03:49:01.156Z,59.67
2019-03-24T03:51:27.535Z,67.77
2019-03-24T03:53:53.877Z,59.53
2019-03-24T03:56:20.274Z,55.67
2019-03-24T03:58:46.651Z,62.53
2019-03-24T04:01:13.194Z,66.10
2019-03-24T04:03:39.568Z,65.37
2019-03-24T04:06:05.940Z,65.23
2019-03-24T04:08:32.383Z,58.87
2019-03-24T04:10:58.952Z,63.03
2019-03-24T04:13:25.345Z,66.43
2019-03-24T04:15:51.945Z,59.73
2019-03-24T04:18:18.316Z,58.73
2019-03-24T04:20:44.713Z,72.10
2019-03-24T04:23:11.180Z,59.57
2019-03-24T04:25:37.722Z,61.33
2019-03-24T04:28:04.341Z,59.53
2019-03-24T04:30:30.795Z,59.47
2019-03-24T04:32:57.263Z,61.97
2019-03-24T04:35:23.818Z,70.20
2019-03-24T04:37:50.199Z,67.47
2019-03-24T04:40:16.681Z,70.90
2019-03-24T04:42:43.055Z,59.47
2019-03-24T04:45:09.607Z,62.87
2019-03-24T04:47:36.171Z,64.97
2019-03-24T04:50:04.328Z,58.30
2019-03-24T04:52:30.808Z,63.40
2019-03-24T04:54:57.202Z,73.77
2019-03-24T04:57:23.681Z,72.63
2019-03-24T04:59:50.112Z,69.10
2019-03-24T05:02:16.575Z,66.97
2019-03-24T05:04:43.127Z,67.17
2019-03-24T05:07:09.708Z,74.60
2019-03-24T05:09:36.152Z,61.87
2019-03-24T05:12:02.540Z,71.23
2019-03-24T05:14:28.954Z,56.07
2019-03-24T05:16:55.416Z,63.70
2019-03-24T05:19:21.895Z,69.63
2019-03-24T05:21:48.263Z,60.80
2019-03-24T05:24:14.736Z,66.20
2019-03-24T05:26:41.201Z,64.37
2019-03-24T05:29:07.592Z,62.23
2019-03-24T05:31:34.035Z,71.70
2019-03-24T05:34:00.513Z,68.67
2019-03-24T05:36:26.969Z,67.13
2019-03-24T05:38:53.443Z,67.60
2019-03-24T05:41:19.899Z,67.30
2019-03-24T05:43:46.288Z,61.10
2019-03-24T05:46:12.631Z,63.17
2019-03-24T05:48:39.104Z,62.17
2019-03-24T05:51:05.451Z,62.97
2019-03-24T05:53:31.828Z,60.13
2019-03-24T05:55:58.376Z,58.50
2019-03-24T05:58:24.855Z,62.17
2019-03-24T06:00:51.219Z,56.33
2019-03-24T06:03:17.632Z,58.23
2019-03-24T06:05:45.329Z,61.40
2019-03-24T06:08:11.712Z,64.20
2019-03-24T06:10:38.174Z,59.10
2019-03-24T06:13:04.719Z,56.50
2019-03-24T06:15:31.238Z,59.20
2019-03-24T06:17:57.583Z,58.73
2019-03-24T06:20:23.980Z,63.27
2019-03-24T06:22:50.444Z,65.27
2019-03-24T06:25:16.811Z,62.37
2019-03-24T06:27:43.268Z,59.83
2019-03-24T06:30:09.744Z,62.23
2019-03-24T06:32:36.096Z,60.67
2019-03-24T06:35:03.387Z,60.33
2019-03-24T06:37:29.771Z,59.50
2019-03-24T06:39:56.144Z,58.67
2019-03-24T06:42:22.602Z,59.77
2019-03-24T06:44:49.068Z,65.30
2019-03-24T06:47:15.415Z,69.67
2019-03-24T06:49:41.845Z,75.37
2019-03-24T06:52:08.303Z,77.70
2019-03-24T06:54:34.694Z,80.13
2019-03-24T06:57:01.243Z,72.47
2019-03-24T06:59:27.596Z,65.33
2019-03-24T07:01:53.988Z,70.73
2019-03-24T07:04:20.429Z,66.03
2019-03-24T07:06:46.804Z,68.40
2019-03-24T07:09:14.053Z,65.47
2019-03-24T07:11:40.454Z,67.87
2019-03-24T07:14:06.972Z,63.03
2019-03-24T07:16:33.442Z,69.57
2019-03-24T07:18:59.841Z,61.17
2019-03-24T07:21:26.295Z,67.77
2019-03-24T07:23:52.663Z,62.67
2019-03-24T07:26:19.127Z,66.17
2019-03-24T07:28:45.515Z,60.13
2019-03-24T07:31:12.092Z,61.63
2019-03-24T07:33:38.447Z,60.00
2019-03-24T07:36:04.932Z,64.47
2019-03-24T07:38:31.376Z,68.90
2019-03-24T07:40:57.856Z,63.30
2019-03-24T07:43:24.215Z,62.73
2019-03-24T07:45:50.595Z,56.40
2019-03-24T07:48:19.375Z,63.47
2019-03-24T07:50:45.439Z,57.93
2019-03-24T07:53:11.871Z,62.17
2019-03-24T07:55:38.348Z,58.83
2019-03-24T07:58:04.796Z,60.00
2019-03-24T08:00:32.295Z,59.27
2019-03-24T08:02:58.831Z,65.00
2019-03-24T08:05:25.183Z,66.97
2019-03-24T08:07:51.673Z,57.00
2019-03-24T08:10:18.012Z,65.03
2019-03-24T08:12:44.412Z,68.50
2019-03-24T08:15:10.963Z,74.97
2019-03-24T08:17:37.548Z,63.90
2019-03-24T08:20:04.714Z,62.93
2019-03-24T08:22:31.083Z,66.23
2019-03-24T08:24:57.438Z,68.07
2019-03-24T08:27:23.812Z,66.30
2019-03-24T08:29:50.255Z,66.53
2019-03-24T08:32:16.747Z,60.47
2019-03-24T08:34:43.100Z,63.53
2019-03-24T08:37:09.503Z,66.70
2019-03-24T08:39:35.956Z,72.77
2019-03-24T08:42:02.451Z,64.83
2019-03-24T08:44:28.799Z,64.73
2019-03-24T08:46:55.167Z,65.47
2019-03-24T08:49:21.514Z,64.90
2019-03-24T08:51:48.018Z,62.77
2019-03-24T08:54:14.491Z,65.00
2019-03-24T08:56:40.831Z,66.47
2019-03-24T08:59:07.406Z,65.03
2019-03-24T09:01:33.888Z,60.77
2019-03-24T09:04:00.239Z,67.53
2019-03-24T09:06:26.692Z,66.97
2019-03-24T09:08:53.068Z,65.77
2019-03-24T09:11:19.523Z,70.67
2019-03-24T09:13:46.004Z,65.50
2019-03-24T09:16:12.361Z,62.07
2019-03-24T09:18:38.936Z,68.40
2019-03-24T09:21:05.387Z,65.93
2019-03-24T09:23:31.772Z,68.30
2019-03-24T09:25:58.218Z,65.77
2019-03-24T09:28:24.701Z,62.83
2019-03-24T09:30:51.162Z,61.70
2019-03-24T09:33:17.745Z,55.75
2019-03-24T09:35:44.207Z,61.10
2019-03-24T09:38:10.690Z,63.68
2019-03-24T09:40:37.147Z,61.33
2019-03-24T09:43:03.819Z,64.90
2019-03-24T09:45:30.392Z,60.65
2019-03-24T09:47:57.071Z,59.60
2019-03-24T09:50:23.632Z,67.72
2019-03-24T09:52:50.192Z,60.40
2019-03-24T09:55:16.551Z,55.58
2019-03-24T09:57:42.999Z,57.38
2019-03-24T10:00:09.476Z,61.37
2019-03-24T10:02:35.925Z,57.55
2019-03-24T10:05:02.792Z,54.80
2019-03-24T10:07:29.148Z,55.75
2019-03-24T10:09:55.615Z,57.78
2019-03-24T10:12:21.961Z,53.95
2019-03-24T10:14:48.370Z,54.23
2019-03-24T10:17:14.830Z,55.17
2019-03-24T10:19:41.204Z,51.00
2019-03-24T10:22:07.651Z,56.02
2019-03-24T10:24:34.224Z,56.20
2019-03-24T10:27:00.586Z,53.78
2019-03-24T10:29:26.966Z,53.40
2019-03-24T10:31:53.528Z,55.03
2019-03-24T10:34:19.911Z,55.92
2019-03-24T10:36:46.421Z,54.73
2019-03-24T10:39:12.912Z,56.30
2019-03-24T10:41:39.463Z,56.02
2019-03-24T10:44:06.035Z,55.55
2019-03-24T10:46:32.511Z,55.88
2019-03-24T10:48:59.107Z,60.35
2019-03-24T10:51:25.603Z,56.23
2019-03-24T10:53:52.001Z,53.95
2019-03-24T10:56:18.674Z,56.13
2019-03-24T10:58:45.147Z,56.02
2019-03-24T11:01:14.456Z,54.77
2019-03-24T11:03:41.031Z,49.38
2019-03-24T11:06:07.495Z,54.45
2019-03-24T11:08:34.190Z,51.25
2019-03-24T11:11:00.640Z,53.63
2019-03-24T11:13:26.970Z,53.98
2019-03-24T11:15:53.664Z,53.20
2019-03-24T11:18:20.155Z,53.55
2019-03-24T11:20:46.752Z,55.58
2019-03-24T11:23:13.387Z,48.58
2019-03-24T11:25:39.891Z,50.08
2019-03-24T11:28:06.235Z,51.25
2019-03-24T11:30:32.612Z,54.58
2019-03-24T11:32:59.219Z,50.85
2019-03-24T11:35:25.702Z,49.53
2019-03-24T11:37:52.648Z,50.28
2019-03-24T11:40:19.118Z,50.35
2019-03-24T11:42:45.471Z,47.85
2019-03-24T11:45:12.409Z,48.60
2019-03-24T11:47:38.892Z,48.00
2019-03-24T11:50:06.653Z,47.88
2019-03-24T11:52:33.168Z,49.73
2019-03-24T11:54:59.520Z,49.35
2019-03-24T11:57:26.018Z,48.23
2019-03-24T11:59:52.380Z,49.30
2019-03-24T12:02:18.777Z,51.65
2019-03-24T12:04:45.336Z,48.85
2019-03-24T12:07:11.807Z,50.92
2019-03-24T12:09:38.155Z,45.30
2019-03-24T12:12:04.736Z,47.33
2019-03-24T12:14:31.140Z,55.15
2019-03-24T12:16:57.603Z,46.65
2019-03-24T12:19:23.989Z,48.28
2019-03-24T12:21:50.467Z,46.40
2019-03-24T12:24:16.819Z,47.17
2019-03-24T12:26:43.215Z,50.63
2019-03-24T12:29:09.559Z,49.67
2019-03-24T12:31:36.027Z,49.35
2019-03-24T12:34:02.574Z,46.35
2019-03-24T12:36:28.966Z,50.23
2019-03-24T12:38:55.310Z,47.25
2019-03-24T12:41:21.764Z,48.98
2019-03-24T12:43:48.146Z,45.60
2019-03-24T12:46:14.495Z,52.10
2019-03-24T12:48:41.069Z,48.98
2019-03-24T12:51:07.511Z,47.90
2019-03-24T12:53:33.908Z,46.40
2019-03-24T12:56:00.460Z,51.25
2019-03-24T12:58:26.860Z,49.42
2019-03-24T13:00:53.459Z,47.67
2019-03-24T13:03:19.953Z,49.75
2019-03-24T13:05:46.404Z,49.38
2019-03-24T13:08:13.568Z,45.20
2019-03-24T13:10:40.763Z,49.33
2019-03-24T13:13:07.531Z,46.35
2019-03-24T13:15:34.017Z,49.77
2019-03-24T13:18:02.483Z,47.17
2019-03-24T13:20:37.979Z,48.13
2019-03-24T13:22:59.514Z,47.88
2019-03-24T13:25:25.960Z,48.17
2019-03-24T13:27:52.448Z,48.15
2019-03-24T13:30:18.895Z,48.02
2019-03-24T13:32:45.259Z,46.63
2019-03-24T13:35:11.729Z,49.33
2019-03-24T13:37:38.293Z,45.73
2019-03-24T13:40:04.932Z,51.10
2019-03-24T13:42:31.398Z,45.28
2019-03-24T13:44:57.823Z,48.80
2019-03-24T13:47:24.374Z,51.63
2019-03-24T13:49:50.772Z,49.80
2019-03-24T13:52:17.171Z,49.42
2019-03-24T13:54:43.564Z,49.38
2019-03-24T13:57:10.038Z,47.55
2019-03-24T13:59:36.518Z,46.25
2019-03-24T14:02:03.476Z,43.52
2019-03-24T14:04:29.957Z,48.45
2019-03-24T14:06:56.511Z,48.68
2019-03-24T14:09:22.912Z,46.28
2019-03-24T14:11:49.360Z,46.10
2019-03-24T14:14:15.863Z,45.78
2019-03-24T14:16:42.231Z,49.27
2019-03-24T14:19:08.715Z,47.58
2019-03-24T14:21:35.085Z,49.63
2019-03-24T14:24:01.547Z,54.88
2019-03-24T14:26:28.107Z,47.55
2019-03-24T14:28:54.702Z,52.25
2019-03-24T14:31:21.055Z,46.85
2019-03-24T14:33:47.425Z,47.98
2019-03-24T14:36:13.803Z,46.63
2019-03-24T14:38:42.470Z,46.68
2019-03-24T14:41:08.811Z,47.00
2019-03-24T14:43:35.183Z,48.35
2019-03-24T14:46:01.637Z,46.42
2019-03-24T14:48:28.026Z,48.30
2019-03-24T14:50:55.112Z,48.70
2019-03-24T14:53:21.583Z,50.60
2019-03-24T14:55:48.141Z,55.52
2019-03-24T14:58:14.504Z,53.05
2019-03-24T15:00:41.631Z,48.33
2019-03-24T15:03:08.382Z,56.18
2019-03-24T15:05:34.967Z,52.75
2019-03-24T15:08:02.132Z,51.02
2019-03-24T15:10:28.527Z,49.38
2019-03-24T15:12:54.989Z,53.33
2019-03-24T15:15:21.496Z,57.17
2019-03-24T15:17:48.061Z,53.30
2019-03-24T15:20:14.566Z,55.45
2019-03-24T15:22:41.015Z,50.00
2019-03-24T15:25:07.692Z,54.67
2019-03-24T15:27:34.307Z,51.73
2019-03-24T15:30:00.863Z,51.63
2019-03-24T15:32:27.241Z,54.80
2019-03-24T15:34:53.967Z,56.83
2019-03-24T15:37:20.402Z,54.50
2019-03-24T15:39:46.876Z,53.00
2019-03-24T15:42:13.230Z,58.20
2019-03-24T15:44:39.694Z,53.45
2019-03-24T15:47:06.059Z,62.93
2019-03-24T15:49:32.431Z,57.60
2019-03-24T15:51:58.878Z,54.60
2019-03-24T15:54:25.369Z,54.18
2019-03-24T15:56:51.721Z,55.88
2019-03-24T15:59:18.258Z,53.87
2019-03-24T16:01:44.861Z,49.77
2019-03-24T16:04:11.291Z,75.87
2019-03-24T16:06:39.482Z,74.37
2019-03-24T16:09:06.555Z,132.12
2019-03-24T16:11:33.002Z,108.92
2019-03-24T16:13:59.496Z,59.03
2019-03-24T16:16:26.093Z,86.57
2019-03-24T16:18:52.439Z,67.17
2019-03-24T16:21:27.409Z,60.35
2019-03-24T16:23:47.182Z,60.58
2019-03-24T16:26:13.577Z,58.60
2019-03-24T16:28:40.141Z,59.42
2019-03-24T16:31:06.647Z,82.42
2019-03-24T16:33:33.089Z,62.37
2019-03-24T16:35:59.555Z,59.80
2019-03-24T16:38:26.022Z,57.33
2019-03-24T16:40:52.441Z,79.30
2019-03-24T16:43:18.910Z,72.27
2019-03-24T16:45:47.296Z,62.77
2019-03-24T16:48:13.685Z,63.47
2019-03-24T16:50:42.385Z,62.97
2019-03-24T16:53:08.871Z,63.17
2019-03-24T16:55:35.320Z,69.57
2019-03-24T16:58:02.084Z,66.03
2019-03-24T17:00:28.443Z,60.63
2019-03-24T17:02:54.804Z,71.43
2019-03-24T17:05:21.277Z,72.90
2019-03-24T17:07:47.849Z,58.50
2019-03-24T17:10:14.324Z,63.57
2019-03-24T17:12:40.904Z,67.77
2019-03-24T17:15:08.201Z,58.90
2019-03-24T17:17:34.767Z,72.97
2019-03-24T17:20:01.473Z,62.77
2019-03-24T17:22:30.099Z,76.83
2019-03-24T17:24:56.306Z,60.73
2019-03-24T17:27:22.691Z,56.90
2019-03-24T17:29:49.124Z,60.80
2019-03-24T17:32:15.489Z,62.37
2019-03-24T17:34:41.831Z,59.23
2019-03-24T17:37:08.311Z,62.20
2019-03-24T17:39:34.697Z,59.53
2019-03-24T17:42:01.158Z,58.67
2019-03-24T17:44:27.511Z,67.00
2019-03-24T17:46:53.964Z,61.60
2019-03-24T17:49:20.332Z,64.17
2019-03-24T17:51:46.793Z,64.03
2019-03-24T17:54:13.304Z,70.40
2019-03-24T17:56:39.861Z,64.27
2019-03-24T17:59:06.240Z,64.07
2019-03-24T18:01:32.797Z,65.90
2019-03-24T18:03:59.195Z,60.47
2019-03-24T18:06:25.640Z,59.97
2019-03-24T18:08:52.211Z,62.13
2019-03-24T18:11:18.672Z,62.03
2019-03-24T18:13:45.245Z,60.67
2019-03-24T18:16:11.616Z,61.60
2019-03-24T18:18:38.074Z,59.67
2019-03-24T18:21:04.660Z,60.50
2019-03-24T18:23:31.171Z,56.23
2019-03-24T18:25:57.658Z,58.77
2019-03-24T18:28:24.306Z,63.37
2019-03-24T18:30:50.762Z,59.50
2019-03-24T18:33:17.131Z,61.97
2019-03-24T18:35:43.683Z,61.87
2019-03-24T18:38:10.174Z,61.20
2019-03-24T18:40:36.711Z,60.17
2019-03-24T18:43:03.378Z,58.77
2019-03-24T18:45:29.831Z,60.87
2019-03-24T18:47:56.289Z,66.10
2019-03-24T18:50:22.654Z,59.03
2019-03-24T18:52:50.187Z,56.83
2019-03-24T18:55:16.815Z,57.87
2019-03-24T18:57:43.280Z,64.70
2019-03-24T19:00:10.556Z,52.57
2019-03-24T19:02:37.011Z,60.50
2019-03-24T19:05:04.772Z,59.90
2019-03-24T19:07:31.362Z,60.80
2019-03-24T19:09:57.761Z,58.33
2019-03-24T19:12:24.215Z,53.63
2019-03-24T19:14:50.730Z,52.37
2019-03-24T19:17:17.187Z,57.70
2019-03-24T19:19:43.678Z,70.97
2019-03-24T19:22:10.131Z,60.17
2019-03-24T19:24:36.590Z,56.33
2019-03-24T19:27:03.149Z,51.00
2019-03-24T19:29:29.560Z,59.80
2019-03-24T19:31:56.210Z,51.60
2019-03-24T19:34:22.551Z,52.83
2019-03-24T19:36:48.923Z,50.53
2019-03-24T19:39:15.283Z,54.57
2019-03-24T19:41:41.749Z,53.83
2019-03-24T19:44:08.131Z,51.17
2019-03-24T19:46:34.513Z,53.87
2019-03-24T19:49:00.863Z,56.93
2019-03-24T19:51:27.255Z,50.10
2019-03-24T19:53:53.702Z,52.37
2019-03-24T19:56:20.084Z,51.27
2019-03-24T19:58:46.445Z,48.33
2019-03-24T20:01:13.023Z,48.90
2019-03-24T20:03:39.366Z,62.83
2019-03-24T20:06:05.848Z,47.07
2019-03-24T20:08:32.235Z,49.33
2019-03-24T20:10:58.736Z,52.97
2019-03-24T20:13:25.091Z,46.53
2019-03-24T20:15:51.607Z,57.30
2019-03-24T20:18:18.168Z,55.83
2019-03-24T20:20:44.536Z,47.73
2019-03-24T20:23:10.998Z,41.40
2019-03-24T20:25:37.473Z,41.40
2019-03-24T20:28:03.973Z,47.67
2019-03-24T20:30:30.541Z,47.87
2019-03-24T20:32:57.091Z,41.20
2019-03-24T20:35:23.552Z,49.37
2019-03-24T20:37:50.053Z,44.47
2019-03-24T20:40:16.499Z,46.30
2019-03-24T20:42:42.887Z,50.37
2019-03-24T20:45:09.659Z,45.03
2019-03-24T20:47:36.131Z,44.07
2019-03-24T20:50:04.542Z,45.80
2019-03-24T20:52:31.106Z,46.70
2019-03-24T20:54:57.583Z,43.43
2019-03-24T20:57:24.076Z,46.70
2019-03-24T20:59:52.088Z,46.90
2019-03-24T21:02:18.654Z,45.33
2019-03-24T21:04:45.046Z,47.73
2019-03-24T21:07:11.565Z,45.93
2019-03-24T21:09:37.909Z,48.53
2019-03-24T21:12:04.312Z,40.67
2019-03-24T21:14:30.711Z,44.47
2019-03-24T21:16:57.228Z,43.97
2019-03-24T21:19:23.726Z,48.37
2019-03-24T21:21:50.102Z,47.47
2019-03-24T21:24:16.547Z,47.10
2019-03-24T21:26:42.923Z,39.27
2019-03-24T21:29:09.303Z,46.07
2019-03-24T21:31:35.764Z,40.83
2019-03-24T21:34:02.229Z,46.00
2019-03-24T21:36:28.600Z,45.57
2019-03-24T21:38:54.951Z,43.07
2019-03-24T21:41:21.350Z,47.03
2019-03-24T21:43:47.945Z,45.67
2019-03-24T21:46:14.301Z,40.90
2019-03-24T21:48:40.676Z,44.80
2019-03-24T21:51:07.123Z,50.27
2019-03-24T21:53:40.624Z,42.73
2019-03-24T21:56:01.839Z,40.50
2019-03-24T21:58:28.226Z,38.90
2019-03-24T22:00:54.676Z,49.50
2019-03-24T22:03:21.293Z,43.43
2019-03-24T22:05:47.736Z,44.53
2019-03-24T22:08:14.323Z,46.47
2019-03-24T22:10:40.880Z,45.60
2019-03-24T22:13:07.320Z,41.53
2019-03-24T22:15:33.734Z,42.73
2019-03-24T22:18:00.208Z,45.33
2019-03-24T22:20:26.762Z,44.90
2019-03-24T22:22:53.341Z,48.47
2019-03-24T22:25:19.799Z,45.70
2019-03-24T22:27:46.203Z,43.93
2019-03-24T22:30:12.869Z,51.57
2019-03-24T22:32:39.225Z,46.90
2019-03-24T22:35:05.583Z,48.90
2019-03-24T22:37:32.055Z,51.83
2019-03-24T22:39:58.408Z,53.10
2019-03-24T22:42:24.779Z,46.77
2019-03-24T22:44:51.159Z,49.33
2019-03-24T22:47:17.631Z,52.30
2019-03-24T22:49:44.079Z,50.47
2019-03-24T22:52:10.540Z,52.93
2019-03-24T22:54:36.910Z,44.80
2019-03-24T22:57:03.290Z,50.90
2019-03-24T22:59:29.763Z,50.70
2019-03-24T23:01:56.206Z,50.77
2019-03-24T23:04:22.680Z,48.73
2019-03-24T23:06:49.039Z,48.20
2019-03-24T23:09:15.508Z,47.83
2019-03-24T23:11:41.963Z,43.77
2019-03-24T23:14:08.439Z,49.93
2019-03-24T23:16:34.827Z,45.80
2019-03-24T23:19:01.212Z,49.70
2019-03-24T23:21:27.622Z,43.30
2019-03-24T23:23:54.095Z,45.07
2019-03-24T23:26:20.546Z,41.03
2019-03-24T23:28:47.103Z,43.63
2019-03-24T23:31:13.675Z,41.03
2019-03-24T23:33:40.135Z,41.20
2019-03-24T23:36:07.510Z,39.53
2019-03-24T23:38:34.104Z,37.70
2019-03-24T23:41:00.463Z,38.47
2019-03-24T23:43:26.857Z,35.83
2019-03-24T23:45:53.299Z,37.93
2019-03-24T23:48:19.674Z,37.93
2019-03-24T23:50:46.259Z,37.43
2019-03-24T23:53:12.804Z,36.13
2019-03-24T23:55:39.259Z,38.83
2019-03-24T23:58:05.607Z,34.83
